Wellston, Oklahoma
Current Conditions -  °F | °C
As of 7:55 AM on Saturday 22 Nov 2014 (Local Time) from KCQB Reporting Station
Heavy Rain Heavy Rain  
Wind Chill: 61°   Ceiling: 4600
Heat Index: 61°   Visibility: 5mi
Dew Point: 61°   Wind: 23mph
Humidity: 100%   Direction: 200°SSW
Pressure: 30.05"   Gusts: 31mph
Location:  35.69°N, 97.06°W
Report Text: KCQB 221355Z AUTO 20020G27KT 5SM +RA SCT010 BKN046 OVC080 16/16 A3005 RMK AO2
Loading
Personal Weather Stations






























Interactive Weather Map New forecast layout! Learn more

10-Day Weather Forecast

Advertisements
Track Severe Weather on mobile